Time;durP1;ratioP1;P1;durP2;ratioP2;P2;SDS_P1;SDS_P2;PMS_P1;PMS_P2;Temp;Humidity;BMP_temperature;BMP_pressure;BME280_temperature;BME280_humidity;BME280_pressure;Samples;Min_cycle;Max_cycle;Signal;HPM_P1;HPM_P2
2024/03/08 00:01:46;;;;;;;5.57;1.73;;;3.00;99.90;;;;;;5081639;28;20537;-80
2024/03/08 00:04:13;;;;;;;4.40;2.53;;;2.90;99.90;;;;;;5081146;28;20544;-81
2024/03/08 00:06:40;;;;;;;4.20;2.93;;;4.40;99.90;;;;;;5080482;28;20529;-81
2024/03/08 00:09:09;;;;;;;8.30;4.67;;;3.80;99.90;;;;;;5084198;28;20464;-81
2024/03/08 00:11:36;;;;;;;13.03;3.50;;;3.00;99.90;;;;;;5079794;28;20510;-81
2024/03/08 00:14:06;;;;;;;9.53;3.33;;;2.90;99.90;;;;;;5080610;28;20500;-81
2024/03/08 00:16:33;;;;;;;3.63;2.67;;;2.70;99.90;;;;;;5080213;28;20459;-82
2024/03/08 00:19:00;;;;;;;1.67;1.57;;;2.80;99.90;;;;;;5079824;28;20938;-81
2024/03/08 00:21:28;;;;;;;8.80;3.67;;;1.90;99.90;;;;;;5079932;28;20429;-80
2024/03/08 00:23:55;;;;;;;4.53;2.20;;;2.40;99.90;;;;;;5080906;28;20476;-82
2024/03/08 00:26:23;;;;;;;3.33;2.50;;;4.40;99.90;;;;;;5080829;28;20480;-81
2024/03/08 00:28:50;;;;;;;9.90;3.30;;;4.50;99.90;;;;;;5079249;28;20453;-82
2024/03/08 00:31:18;;;;;;;6.80;3.00;;;2.70;99.90;;;;;;5088163;28;20433;-80
2024/03/08 00:33:44;;;;;;;12.87;3.97;;;2.80;99.90;;;;;;5082051;28;20540;-81
2024/03/08 00:36:12;;;;;;;8.97;3.87;;;2.70;99.90;;;;;;5078520;28;20517;-82
2024/03/08 00:38:39;;;;;;;3.10;2.80;;;2.80;99.90;;;;;;5079234;28;20456;-81
2024/03/08 00:41:07;;;;;;;6.27;3.17;;;4.30;99.90;;;;;;5079932;28;20453;-81
2024/03/08 00:43:35;;;;;;;12.50;5.00;;;3.90;99.90;;;;;;5080045;28;20448;-81
2024/03/08 00:46:02;;;;;;;11.93;3.30;;;2.60;99.90;;;;;;5080453;28;20455;-81
2024/03/08 00:48:30;;;;;;;8.37;3.20;;;3.10;99.90;;;;;;5079688;28;20469;-81
2024/03/08 00:50:58;;;;;;;4.07;2.40;;;2.60;99.90;;;;;;5081194;28;20452;-81
2024/03/08 00:53:25;;;;;;;8.80;4.83;;;4.10;99.90;;;;;;5079511;28;20436;-81
2024/03/08 00:55:52;;;;;;;7.30;3.10;;;3.40;99.90;;;;;;5079907;28;20575;-80
2024/03/08 00:58:19;;;;;;;3.73;3.07;;;3.00;99.90;;;;;;5081702;28;20499;-81
2024/03/08 01:00:48;;;;;;;4.53;2.17;;;1.80;99.90;;;;;;5081277;28;20434;-81
2024/03/08 01:03:15;;;;;;;6.33;3.17;;;3.70;99.90;;;;;;5080362;28;20449;-81
2024/03/08 01:05:42;;;;;;;3.43;2.50;;;3.40;99.90;;;;;;5079864;28;20477;-80
2024/03/08 01:08:11;;;;;;;6.67;3.07;;;2.20;99.90;;;;;;5080611;28;20812;-81
2024/03/08 01:10:38;;;;;;;16.43;4.70;;;2.20;99.90;;;;;;5079457;28;20804;-80
2024/03/08 01:13:05;;;;;;;6.40;2.00;;;2.40;99.90;;;;;;5079263;28;20437;-82
2024/03/08 01:15:33;;;;;;;11.20;4.30;;;2.30;99.90;;;;;;5081210;28;20473;-80
2024/03/08 01:18:02;;;;;;;8.40;2.60;;;2.30;99.90;;;;;;5097884;28;20448;-79
2024/03/08 01:20:29;;;;;;;4.93;2.17;;;3.40;99.90;;;;;;5097471;28;20513;-80
2024/03/08 01:22:56;;;;;;;8.53;3.00;;;2.70;99.90;;;;;;5081909;28;20452;-80
2024/03/08 01:25:23;;;;;;;3.33;2.63;;;2.30;99.90;;;;;;5079357;28;20554;-81
2024/03/08 01:27:50;;;;;;;10.03;5.00;;;2.20;99.90;;;;;;5079397;28;20473;-81
2024/03/08 01:30:17;;;;;;;3.60;1.50;;;2.20;99.90;;;;;;5081877;28;20564;-82
2024/03/08 01:32:44;;;;;;;1.17;1.13;;;2.30;99.90;;;;;;5081468;28;20445;-82
2024/03/08 01:35:12;;;;;;;2.00;1.90;;;1.90;99.90;;;;;;5081757;28;20469;-80
2024/03/08 01:37:40;;;;;;;5.83;3.23;;;2.10;99.90;;;;;;5079879;28;20527;-81
2024/03/08 01:40:08;;;;;;;4.93;3.67;;;2.20;99.90;;;;;;5079443;28;20499;-80
2024/03/08 01:42:37;;;;;;;3.90;2.03;;;2.10;99.90;;;;;;5079006;28;20506;-81
2024/03/08 01:45:05;;;;;;;9.30;3.20;;;2.00;99.90;;;;;;5078593;28;20460;-80
2024/03/08 01:47:33;;;;;;;9.27;2.67;;;2.10;99.90;;;;;;5079685;28;20542;-81
2024/03/08 01:50:01;;;;;;;6.03;3.10;;;2.90;99.90;;;;;;5080102;28;20456;-82
2024/03/08 01:52:31;;;;;;;3.03;1.97;;;1.80;99.90;;;;;;5080473;28;20449;-80
2024/03/08 01:55:00;;;;;;;8.00;2.13;;;2.80;99.90;;;;;;5081568;28;20476;-80
2024/03/08 01:57:28;;;;;;;4.50;2.17;;;1.90;99.90;;;;;;5081087;28;20537;-81
2024/03/08 01:59:56;;;;;;;5.50;2.73;;;2.50;99.90;;;;;;5080311;28;20453;-80
2024/03/08 02:02:23;;;;;;;1.43;1.30;;;1.90;99.90;;;;;;5081898;28;20459;-80
2024/03/08 02:04:52;;;;;;;3.97;2.60;;;1.30;99.90;;;;;;5083045;28;20445;-80
2024/03/08 02:07:19;;;;;;;5.23;3.17;;;3.40;99.90;;;;;;5078839;28;20508;-81
2024/03/08 02:09:48;;;;;;;8.63;1.70;;;1.90;99.90;;;;;;5079375;28;20952;-81
2024/03/08 02:12:15;;;;;;;2.93;2.63;;;1.70;99.90;;;;;;5080161;28;20514;-82
2024/03/08 02:14:43;;;;;;;3.33;1.80;;;2.70;99.90;;;;;;5080092;28;20473;-81
2024/03/08 02:17:11;;;;;;;3.93;2.03;;;1.80;99.90;;;;;;5080884;28;20469;-82
2024/03/08 02:19:38;;;;;;;5.90;2.20;;;0.80;99.90;;;;;;5082318;28;20510;-82
2024/03/08 02:22:08;;;;;;;3.03;2.83;;;1.90;99.90;;;;;;5079906;28;20487;-80
2024/03/08 02:24:36;;;;;;;8.10;2.73;;;2.30;99.90;;;;;;5081462;28;20465;-82
2024/03/08 02:27:03;;;;;;;2.83;2.63;;;2.70;99.90;;;;;;5098810;28;20468;-82
2024/03/08 02:29:31;;;;;;;9.53;2.00;;;1.80;99.90;;;;;;5097272;28;20476;-80
2024/03/08 02:31:58;;;;;;;6.43;3.30;;;2.50;99.90;;;;;;5095759;28;20417;-80
2024/03/08 02:34:25;;;;;;;10.70;4.90;;;1.20;99.90;;;;;;5090512;28;20443;-80
2024/03/08 02:36:52;;;;;;;6.10;3.27;;;1.80;99.90;;;;;;5079478;28;20487;-81
2024/03/08 02:39:21;;;;;;;3.97;1.17;;;2.10;99.90;;;;;;5080267;28;20433;-80
2024/03/08 02:41:48;;;;;;;5.63;1.90;;;2.40;99.90;;;;;;5080258;28;20487;-80
2024/03/08 02:44:16;;;;;;;6.43;1.57;;;3.20;99.90;;;;;;5080640;28;20483;-81
2024/03/08 02:46:43;;;;;;;2.77;2.00;;;1.70;99.90;;;;;;5079379;28;20851;-82
2024/03/08 02:49:11;;;;;;;4.40;3.23;;;1.60;99.90;;;;;;5081835;28;20534;-81
2024/03/08 02:51:38;;;;;;;6.77;2.23;;;1.60;99.90;;;;;;5079850;28;20535;-81
2024/03/08 02:54:05;;;;;;;3.47;2.10;;;1.70;99.90;;;;;;5080642;28;20433;-81
2024/03/08 02:56:35;;;;;;;6.70;3.40;;;1.50;99.90;;;;;;5078962;28;20477;-82
2024/03/08 02:59:02;;;;;;;5.40;2.03;;;2.50;99.90;;;;;;5078685;28;20452;-81
2024/03/08 03:01:30;;;;;;;3.77;2.10;;;1.60;99.90;;;;;;5078792;28;20540;-81
2024/03/08 03:03:56;;;;;;;2.83;1.53;;;1.50;99.90;;;;;;5080227;28;20556;-81
2024/03/08 03:06:25;;;;;;;4.60;1.70;;;2.70;99.90;;;;;;5083283;28;20930;-81
2024/03/08 03:08:52;;;;;;;2.93;1.77;;;1.50;99.90;;;;;;5085198;28;21135;-81
2024/03/08 03:11:21;;;;;;;1.13;1.13;;;3.30;99.90;;;;;;5084535;28;20791;-81
2024/03/08 03:13:49;;;;;;;6.03;2.60;;;2.70;99.90;;;;;;5084062;28;20456;-81
2024/03/08 03:16:19;;;;;;;4.80;3.20;;;2.30;99.90;;;;;;5083854;28;20522;-82
2024/03/08 03:18:47;;;;;;;2.20;1.57;;;1.30;99.90;;;;;;5083206;28;20909;-81
2024/03/08 03:21:14;;;;;;;3.83;2.83;;;1.40;99.90;;;;;;5084425;28;20532;-80
2024/03/08 03:23:42;;;;;;;2.60;2.37;;;1.30;99.90;;;;;;5084597;28;20510;-80
2024/03/08 03:26:11;;;;;;;3.17;2.20;;;1.20;99.90;;;;;;5082700;28;20477;-81
2024/03/08 03:28:39;;;;;;;8.07;2.63;;;3.00;99.90;;;;;;5083139;28;20473;-80
2024/03/08 03:31:14;;;;;;;1.80;1.70;;;2.50;99.90;;;;;;5081300;28;20481;-81
2024/03/08 03:33:41;;;;;;;12.23;3.10;;;1.10;99.90;;;;;;5083772;28;20444;-81
2024/03/08 03:36:09;;;;;;;2.20;1.40;;;1.10;99.90;;;;;;5083635;28;20507;-80
2024/03/08 03:38:37;;;;;;;2.93;1.60;;;1.20;99.90;;;;;;5086115;28;20568;-80
2024/03/08 03:41:10;;;;;;;6.27;2.73;;;2.70;99.90;;;;;;5082476;28;20817;-81
2024/03/08 03:43:38;;;;;;;8.30;3.30;;;1.10;99.90;;;;;;5083731;28;20473;-80
2024/03/08 03:46:10;;;;;;;2.80;1.87;;;2.10;99.90;;;;;;5083130;28;20437;-81
2024/03/08 03:48:37;;;;;;;13.53;3.40;;;1.10;99.90;;;;;;5083584;28;20473;-81
2024/03/08 03:51:05;;;;;;;3.03;2.50;;;1.10;99.90;;;;;;5083572;28;20483;-81
2024/03/08 03:53:32;;;;;;;4.80;2.73;;;1.00;99.90;;;;;;5084302;28;20551;-81
2024/03/08 03:55:59;;;;;;;6.20;1.87;;;0.80;99.90;;;;;;5083953;28;20567;-81
2024/03/08 03:58:27;;;;;;;5.67;3.27;;;0.80;99.90;;;;;;5083696;28;20500;-80
2024/03/08 04:00:54;;;;;;;4.87;2.40;;;1.00;99.90;;;;;;5084491;28;20914;-80
2024/03/08 04:03:23;;;;;;;2.43;1.63;;;2.20;99.90;;;;;;5084099;28;20551;-80
2024/03/08 04:05:50;;;;;;;2.33;2.13;;;1.90;99.90;;;;;;5080938;28;20433;-81
2024/03/08 04:08:17;;;;;;;1.60;1.40;;;0.70;99.90;;;;;;5081018;28;20504;-80
2024/03/08 04:10:44;;;;;;;4.63;2.67;;;2.50;99.90;;;;;;5080484;28;20544;-80
2024/03/08 04:13:11;;;;;;;3.30;2.40;;;0.90;99.90;;;;;;5081387;28;20445;-80
2024/03/08 04:15:38;;;;;;;9.83;2.20;;;0.70;99.90;;;;;;5081983;28;20480;-80
2024/03/08 04:18:06;;;;;;;6.83;3.00;;;0.80;99.90;;;;;;5080967;28;20465;-80
2024/03/08 04:20:34;;;;;;;2.77;2.53;;;0.70;99.90;;;;;;5080801;28;20768;-80
2024/03/08 04:23:01;;;;;;;6.77;3.53;;;0.80;99.90;;;;;;5081625;28;20441;-80
2024/03/08 04:25:28;;;;;;;2.17;2.03;;;0.60;99.90;;;;;;5080874;28;20528;-80
2024/03/08 04:27:55;;;;;;;10.13;2.70;;;1.00;99.90;;;;;;5080879;28;20459;-82
2024/03/08 04:30:22;;;;;;;2.43;1.60;;;0.80;99.90;;;;;;5080553;28;21056;-82
2024/03/08 04:32:49;;;;;;;3.90;1.90;;;2.00;99.90;;;;;;5081056;28;20455;-81
2024/03/08 04:35:16;;;;;;;6.47;2.13;;;0.70;99.90;;;;;;5082503;28;20452;-81
2024/03/08 04:37:45;;;;;;;4.77;1.73;;;-0.50;99.90;;;;;;5080574;28;20477;-81
2024/03/08 04:40:12;;;;;;;3.03;1.47;;;0.70;99.90;;;;;;5081588;28;20433;-81
2024/03/08 04:42:41;;;;;;;3.80;1.53;;;-0.60;99.90;;;;;;5082264;28;20918;-80
2024/03/08 04:45:10;;;;;;;2.23;2.07;;;0.70;99.90;;;;;;5082285;28;20499;-81
2024/03/08 04:47:37;;;;;;;1.30;1.20;;;0.70;99.90;;;;;;5082053;28;20829;-81
2024/03/08 04:50:05;;;;;;;3.70;1.90;;;2.50;99.90;;;;;;5082732;28;20449;-81
2024/03/08 04:52:32;;;;;;;1.67;1.57;;;0.70;99.90;;;;;;5082315;28;20445;-81
2024/03/08 04:55:01;;;;;;;2.47;2.33;;;2.10;99.90;;;;;;5081434;28;20460;-81
2024/03/08 04:57:28;;;;;;;2.30;2.00;;;1.90;99.90;;;;;;5079766;28;20531;-81
2024/03/08 04:59:55;;;;;;;2.67;1.80;;;0.60;99.90;;;;;;5081546;28;20528;-80
2024/03/08 05:02:23;;;;;;;2.33;2.13;;;0.50;99.90;;;;;;5084188;28;20445;-80
2024/03/08 05:04:50;;;;;;;2.10;1.20;;;1.70;99.90;;;;;;5085322;28;20868;-81
2024/03/08 05:07:17;;;;;;;1.77;1.67;;;0.50;99.90;;;;;;5083319;28;20473;-81
2024/03/08 05:09:51;;;;;;;5.23;1.73;;;0.50;99.90;;;;;;5083323;28;21009;-81
2024/03/08 05:12:19;;;;;;;8.90;2.27;;;0.50;99.90;;;;;;5084246;28;20437;-80
2024/03/08 05:14:49;;;;;;;4.10;2.40;;;0.50;99.90;;;;;;5083489;28;20962;-80
2024/03/08 05:17:16;;;;;;;6.10;2.90;;;0.40;99.90;;;;;;5081916;28;21047;-81
2024/03/08 05:19:43;;;;;;;3.93;2.37;;;0.40;99.90;;;;;;5097971;28;20432;-79
2024/03/08 05:22:10;;;;;;;3.57;3.23;;;1.50;99.90;;;;;;5099142;28;20421;-80
2024/03/08 05:24:37;;;;;;;1.30;1.30;;;1.60;99.90;;;;;;5097195;28;20480;-80
2024/03/08 05:27:06;;;;;;;6.33;3.23;;;1.40;99.90;;;;;;5094707;28;20471;-80
2024/03/08 05:29:34;;;;;;;4.10;1.47;;;0.40;99.90;;;;;;5082795;28;20484;-81
2024/03/08 05:32:02;;;;;;;1.53;1.43;;;1.40;99.90;;;;;;5082472;28;20449;-81
2024/03/08 05:34:29;;;;;;;9.00;3.07;;;1.60;99.90;;;;;;5083578;28;20457;-81
2024/03/08 05:36:58;;;;;;;3.90;2.00;;;0.30;99.90;;;;;;5082708;28;20515;-81
2024/03/08 05:39:25;;;;;;;3.93;3.10;;;1.40;99.90;;;;;;5082716;28;20454;-81
2024/03/08 05:41:52;;;;;;;1.00;1.00;;;-0.40;99.90;;;;;;5082176;28;20437;-81
2024/03/08 05:44:19;;;;;;;3.37;2.00;;;1.40;99.90;;;;;;5082052;28;20444;-81
2024/03/08 05:46:48;;;;;;;7.33;2.20;;;0.30;99.90;;;;;;5083325;28;20520;-81
2024/03/08 05:49:15;;;;;;;5.23;3.50;;;1.60;99.90;;;;;;5082978;28;20477;-80
2024/03/08 05:51:42;;;;;;;3.33;2.30;;;0.30;99.90;;;;;;5091133;28;20483;-79
2024/03/08 05:54:10;;;;;;;2.43;1.97;;;1.50;99.90;;;;;;5082199;28;20522;-80
2024/03/08 05:56:38;;;;;;;7.00;2.43;;;1.20;99.90;;;;;;5081513;28;20478;-81
2024/03/08 05:59:06;;;;;;;6.43;2.50;;;0.80;99.90;;;;;;5085437;28;20452;-80
2024/03/08 06:01:35;;;;;;;4.73;2.47;;;0.30;99.90;;;;;;5083337;28;20554;-80
2024/03/08 06:04:05;;;;;;;2.23;2.10;;;0.90;99.90;;;;;;5084550;28;20460;-81
2024/03/08 06:06:32;;;;;;;4.43;2.30;;;0.40;99.90;;;;;;5081851;28;20440;-81
2024/03/08 06:08:59;;;;;;;3.10;2.20;;;0.20;99.90;;;;;;5082507;28;20517;-79
2024/03/08 06:11:28;;;;;;;2.37;2.27;;;0.40;99.90;;;;;;5083152;28;20839;-79
2024/03/08 06:13:59;;;;;;;6.00;2.00;;;0.40;99.90;;;;;;5084491;28;20457;-80
2024/03/08 06:16:28;;;;;;;5.10;2.20;;;0.60;99.90;;;;;;5084463;28;20480;-79
2024/03/08 06:18:57;;;;;;;3.20;2.27;;;0.60;99.90;;;;;;5084069;28;20497;-80
2024/03/08 06:21:26;;;;;;;6.53;1.60;;;0.80;99.90;;;;;;5084093;28;20464;-79
2024/03/08 06:23:54;;;;;;;2.83;1.40;;;0.90;99.90;;;;;;5085097;28;20532;-81
2024/03/08 06:26:21;;;;;;;0.90;0.77;;;0.10;99.90;;;;;;5087104;28;20483;-81
2024/03/08 06:28:49;;;;;;;4.93;2.50;;;1.70;99.90;;;;;;5085349;28;20453;-81
2024/03/08 06:31:16;;;;;;;5.90;2.90;;;1.80;99.90;;;;;;5086583;28;20487;-80
2024/03/08 06:33:43;;;;;;;3.73;2.07;;;1.30;99.90;;;;;;5086229;28;20425;-80
2024/03/08 06:36:11;;;;;;;5.73;2.20;;;1.30;99.90;;;;;;5084928;28;20506;-79
2024/03/08 06:38:42;;;;;;;2.63;2.37;;;1.30;99.90;;;;;;5085716;28;20480;-80
2024/03/08 06:41:14;;;;;;;2.47;1.20;;;1.30;99.90;;;;;;5084503;28;20798;-81
2024/03/08 06:43:42;;;;;;;1.60;1.50;;;1.30;99.90;;;;;;5085119;28;20449;-80
2024/03/08 06:46:09;;;;;;;3.07;2.27;;;2.30;99.90;;;;;;5085717;28;20445;-80
2024/03/08 06:48:38;;;;;;;3.90;2.43;;;1.70;99.90;;;;;;5086290;28;20469;-80
2024/03/08 06:51:05;;;;;;;2.93;2.23;;;2.70;99.90;;;;;;5085441;28;20473;-81
2024/03/08 06:53:34;;;;;;;3.37;2.10;;;1.60;99.90;;;;;;5084480;28;20825;-80
2024/03/08 06:56:03;;;;;;;8.60;2.80;;;1.70;99.90;;;;;;5086838;28;21024;-80
2024/03/08 06:58:30;;;;;;;5.70;3.13;;;1.70;99.90;;;;;;5087161;28;20473;-79
2024/03/08 07:01:00;;;;;;;3.93;2.07;;;1.70;99.90;;;;;;5087935;28;20452;-81
2024/03/08 07:03:29;;;;;;;2.87;1.80;;;1.90;99.90;;;;;;5086013;28;20453;-80
2024/03/08 07:05:58;;;;;;;4.50;2.43;;;1.90;99.90;;;;;;5087497;28;20464;-80
2024/03/08 07:08:26;;;;;;;8.17;3.37;;;2.00;99.90;;;;;;5086143;28;20492;-79
2024/03/08 07:10:53;;;;;;;2.20;2.10;;;2.00;99.90;;;;;;5089862;28;20456;-80
2024/03/08 07:13:22;;;;;;;4.63;2.83;;;2.50;99.90;;;;;;5087601;28;20433;-80
2024/03/08 07:15:49;;;;;;;9.97;3.07;;;2.10;99.90;;;;;;5087015;28;20449;-80
2024/03/08 07:18:16;;;;;;;7.40;4.87;;;3.30;99.90;;;;;;5087579;28;20511;-80
2024/03/08 07:20:43;;;;;;;5.60;1.33;;;2.10;99.90;;;;;;5086570;28;20867;-80
2024/03/08 07:23:11;;;;;;;1.20;0.90;;;3.30;99.90;;;;;;5086609;28;20457;-79
2024/03/08 07:25:39;;;;;;;4.20;1.97;;;2.40;99.90;;;;;;5087211;28;20515;-80
2024/03/08 07:28:07;;;;;;;8.07;2.90;;;3.60;99.90;;;;;;5085047;28;20501;-81
2024/03/08 07:31:01;;;;;;;10.03;2.27;;;2.30;99.90;;;;;;5088079;28;21067;-80
2024/03/08 07:33:28;;;;;;;11.33;2.60;;;3.30;99.90;;;;;;5086811;28;20495;-80
2024/03/08 07:35:56;;;;;;;4.00;1.90;;;2.20;99.90;;;;;;5085413;28;20474;-80
2024/03/08 07:38:23;;;;;;;6.57;3.50;;;2.40;99.90;;;;;;5083799;28;20511;-81
2024/03/08 07:40:51;;;;;;;9.50;2.97;;;3.60;99.90;;;;;;5083532;28;20453;-80
2024/03/08 07:43:18;;;;;;;4.27;1.53;;;2.30;99.90;;;;;;5085759;28;20464;-80
2024/03/08 07:45:46;;;;;;;3.23;2.07;;;2.10;99.90;;;;;;5084187;28;20483;-81
2024/03/08 07:48:14;;;;;;;5.60;3.27;;;3.60;99.90;;;;;;5087378;28;20555;-81
2024/03/08 07:50:41;;;;;;;5.97;3.20;;;2.50;99.90;;;;;;5086910;28;20938;-81
2024/03/08 07:53:09;;;;;;;5.73;2.17;;;2.60;99.90;;;;;;5089583;28;20452;-80
2024/03/08 07:55:37;;;;;;;6.53;3.23;;;2.20;99.90;;;;;;5092725;28;20449;-80
2024/03/08 07:58:04;;;;;;;8.83;2.30;;;2.20;99.90;;;;;;5087846;28;20512;-80
2024/03/08 08:00:32;;;;;;;9.77;3.77;;;2.30;99.90;;;;;;5098891;28;20433;-78
2024/03/08 08:03:01;;;;;;;3.10;1.67;;;2.70;99.90;;;;;;5100084;28;20451;-78
2024/03/08 08:05:28;;;;;;;5.80;2.87;;;2.40;99.90;;;;;;5100801;28;20483;-78
2024/03/08 08:07:55;;;;;;;2.30;1.47;;;3.80;99.90;;;;;;5100450;28;20472;-78
2024/03/08 08:10:24;;;;;;;6.53;2.43;;;3.20;99.90;;;;;;5100611;28;20460;-79
2024/03/08 08:12:52;;;;;;;6.40;2.67;;;2.70;99.90;;;;;;5090314;28;20464;-80
2024/03/08 08:15:25;;;;;;;4.93;2.60;;;2.80;99.90;;;;;;5098782;28;20453;-80
2024/03/08 08:17:53;;;;;;;2.70;1.60;;;2.90;99.90;;;;;;5096721;28;20488;-81
2024/03/08 08:20:21;;;;;;;4.70;2.50;;;3.00;99.90;;;;;;5096284;28;20464;-80
2024/03/08 08:22:49;;;;;;;3.20;2.10;;;3.10;99.90;;;;;;5093586;28;20854;-81
2024/03/08 08:25:15;;;;;;;9.43;3.37;;;3.80;99.90;;;;;;5086630;28;20479;-81
2024/03/08 08:27:43;;;;;;;6.93;3.37;;;3.80;99.90;;;;;;5088961;28;20461;-80
2024/03/08 08:30:11;;;;;;;3.90;2.10;;;3.20;99.90;;;;;;5089892;28;20487;-80
2024/03/08 08:32:39;;;;;;;8.23;2.90;;;3.30;99.90;;;;;;5091284;28;20452;-80
2024/03/08 08:35:09;;;;;;;4.83;3.20;;;3.30;99.90;;;;;;5091159;28;20468;-81
2024/03/08 08:37:40;;;;;;;4.80;2.57;;;3.40;99.90;;;;;;5093890;28;20540;-81
2024/03/08 08:40:10;;;;;;;3.77;3.37;;;3.40;99.90;;;;;;5090074;28;20468;-80
2024/03/08 08:42:38;;;;;;;3.37;2.13;;;2.90;99.90;;;;;;5088875;28;20433;-80
2024/03/08 08:45:08;;;;;;;2.57;1.40;;;3.40;99.90;;;;;;5087916;28;20452;-81
2024/03/08 08:47:35;;;;;;;14.67;3.13;;;3.50;99.90;;;;;;5087209;28;20468;-81
2024/03/08 08:50:04;;;;;;;7.87;4.17;;;3.50;99.90;;;;;;5089047;28;20455;-81
2024/03/08 08:52:31;;;;;;;5.30;3.13;;;3.40;99.90;;;;;;5088491;28;20588;-81
2024/03/08 08:55:00;;;;;;;6.13;2.90;;;4.00;99.90;;;;;;5088998;28;20460;-81
2024/03/08 08:57:28;;;;;;;7.87;2.07;;;3.50;99.90;;;;;;5092374;28;20476;-82
2024/03/08 08:59:57;;;;;;;7.30;3.00;;;3.60;99.90;;;;;;5091640;28;20429;-81
2024/03/08 09:02:25;;;;;;;8.10;3.13;;;5.00;99.90;;;;;;5087829;28;20457;-81
2024/03/08 09:04:52;;;;;;;4.13;2.97;;;3.80;99.90;;;;;;5089363;28;20464;-81
2024/03/08 09:07:19;;;;;;;3.10;2.00;;;4.80;99.90;;;;;;5091997;28;20465;-81
2024/03/08 09:09:46;;;;;;;3.20;1.73;;;4.00;99.90;;;;;;5095487;28;20455;-82
2024/03/08 09:12:15;;;;;;;4.50;2.20;;;5.50;99.90;;;;;;5094710;28;20452;-81
2024/03/08 09:14:43;;;;;;;7.77;2.87;;;5.20;99.90;;;;;;5092424;28;20475;-81
2024/03/08 09:17:10;;;;;;;2.77;2.23;;;3.70;99.90;;;;;;5091852;28;20510;-81
2024/03/08 09:19:38;;;;;;;7.93;2.50;;;3.80;99.90;;;;;;5092749;28;20433;-81
2024/03/08 09:22:05;;;;;;;3.90;3.00;;;4.80;99.90;;;;;;5088215;28;20452;-81
2024/03/08 09:24:32;;;;;;;3.40;1.73;;;4.00;99.90;;;;;;5085793;28;20488;-81
2024/03/08 09:27:00;;;;;;;6.70;3.83;;;4.80;99.90;;;;;;5087614;28;20483;-81
2024/03/08 09:29:28;;;;;;;9.27;3.87;;;3.80;99.90;;;;;;5086775;28;20511;-81
2024/03/08 09:31:55;;;;;;;4.67;3.00;;;3.80;99.90;;;;;;5088249;28;20445;-81
2024/03/08 09:34:23;;;;;;;3.30;2.60;;;4.00;99.90;;;;;;5088602;28;20511;-81
2024/03/08 09:36:50;;;;;;;3.80;2.70;;;4.10;99.90;;;;;;5090767;28;20449;-82
2024/03/08 09:39:20;;;;;;;5.70;3.47;;;4.20;99.90;;;;;;5091758;28;20449;-80
2024/03/08 09:41:49;;;;;;;5.60;2.37;;;4.30;99.90;;;;;;5091182;28;20444;-80
2024/03/08 09:44:16;;;;;;;3.17;1.93;;;4.30;99.90;;;;;;5083604;28;20995;-80
2024/03/08 09:46:47;;;;;;;5.23;2.20;;;4.10;99.90;;;;;;5084396;28;20461;-81
2024/03/08 09:49:16;;;;;;;4.07;2.33;;;4.10;99.90;;;;;;5086751;28;20425;-81
2024/03/08 09:51:43;;;;;;;2.00;1.23;;;4.30;99.90;;;;;;5088748;28;20473;-81
2024/03/08 09:54:12;;;;;;;3.30;2.43;;;4.40;99.90;;;;;;5082274;28;20481;-81
2024/03/08 09:56:50;;;;;;;4.67;2.83;;;4.30;99.90;;;;;;5083027;28;20445;-81
2024/03/08 09:59:41;;;;;;;3.23;1.63;;;5.20;99.90;;;;;;5079333;28;20526;-80
2024/03/08 10:02:18;;;;;;;10.37;1.90;;;3.90;99.90;;;;;;5080706;28;20502;-82
2024/03/08 10:04:48;;;;;;;5.70;3.43;;;4.40;99.90;;;;;;5078698;28;20491;-82
2024/03/08 10:07:16;;;;;;;7.53;2.60;;;4.40;99.90;;;;;;5086147;28;20473;-81
2024/03/08 10:09:47;;;;;;;4.37;2.70;;;3.60;99.90;;;;;;5084790;28;20863;-80
2024/03/08 10:12:16;;;;;;;3.93;2.50;;;3.80;99.90;;;;;;5080069;28;20425;-81
2024/03/08 10:14:43;;;;;;;1.87;1.77;;;4.00;99.90;;;;;;5086062;28;20449;-81
2024/03/08 10:17:13;;;;;;;7.43;2.53;;;5.30;99.90;;;;;;5084370;28;20552;-79
2024/03/08 10:19:50;;;;;;;2.83;2.10;;;5.30;99.90;;;;;;5084428;28;20500;-80
2024/03/08 10:22:17;;;;;;;3.77;1.97;;;5.60;99.90;;;;;;5083029;28;20489;-81
2024/03/08 10:24:47;;;;;;;3.70;2.97;;;5.00;99.90;;;;;;5088092;28;20437;-82
2024/03/08 10:27:16;;;;;;;7.10;3.93;;;4.60;99.90;;;;;;5087409;28;20468;-82
2024/03/08 10:29:47;;;;;;;7.90;4.23;;;4.50;99.90;;;;;;5083715;28;20500;-81
2024/03/08 10:32:17;;;;;;;7.23;2.40;;;4.60;99.90;;;;;;5082081;28;20811;-81
2024/03/08 10:34:45;;;;;;;3.43;3.17;;;4.10;99.90;;;;;;5081711;28;20503;-82
2024/03/08 10:37:22;;;;;;;3.83;1.97;;;5.50;99.90;;;;;;5083382;28;20465;-82
2024/03/08 10:40:10;;;;;;;5.37;2.70;;;4.60;99.90;;;;;;5084073;28;20479;-81
2024/03/08 10:42:43;;;;;;;3.83;1.70;;;4.80;99.90;;;;;;5083333;28;20453;-80
2024/03/08 10:45:16;;;;;;;21.37;3.10;;;4.80;99.90;;;;;;5081832;28;20466;-81
2024/03/08 10:47:49;;;;;;;4.90;3.10;;;4.90;99.90;;;;;;5084189;28;20973;-81
2024/03/08 10:50:21;;;;;;;10.20;3.23;;;5.60;99.90;;;;;;5084854;28;20421;-81
2024/03/08 10:52:52;;;;;;;3.63;3.33;;;6.20;99.90;;;;;;5084100;28;20418;-81
2024/03/08 10:55:26;;;;;;;3.00;1.93;;;5.40;99.90;;;;;;5082131;28;20798;-82
2024/03/08 10:58:00;;;;;;;2.87;2.20;;;5.40;99.90;;;;;;5086090;28;20479;-82
2024/03/08 11:00:28;;;;;;;6.57;2.67;;;5.60;99.90;;;;;;5082190;28;20437;-81
2024/03/08 11:02:57;;;;;;;4.13;3.03;;;6.00;99.90;;;;;;5086938;28;20453;-80
2024/03/08 11:05:39;;;;;;;4.57;1.70;;;6.00;99.90;;;;;;5095469;28;20489;-79
2024/03/08 11:08:19;;;;;;;5.93;3.10;;;6.20;99.90;;;;;;5093041;28;20452;-80
2024/03/08 11:10:52;;;;;;;7.17;3.07;;;7.40;99.90;;;;;;5088323;28;20452;-80
2024/03/08 11:13:40;;;;;;;7.00;2.20;;;6.60;99.90;;;;;;5092761;28;20478;-80
2024/03/08 11:16:10;;;;;;;6.00;3.67;;;6.60;99.90;;;;;;5086088;28;20449;-80
2024/03/08 11:18:41;;;;;;;7.10;4.20;;;6.50;99.90;;;;;;5061715;28;20516;-81
2024/03/08 11:21:14;;;;;;;3.53;2.50;;;5.10;99.90;;;;;;5085097;28;20614;-81
2024/03/08 11:23:42;;;;;;;8.17;3.10;;;6.60;99.90;;;;;;5081359;28;20799;-81
2024/03/08 11:26:19;;;;;;;8.00;3.73;;;6.40;99.90;;;;;;5085132;28;20479;-82
2024/03/08 11:28:47;;;;;;;8.33;3.23;;;6.70;99.90;;;;;;5086009;28;20962;-80
2024/03/08 11:31:26;;;;;;;8.83;3.47;;;7.70;99.90;;;;;;5088619;28;20901;-81
2024/03/08 11:34:05;;;;;;;5.90;3.63;;;6.80;99.90;;;;;;5089224;28;20452;-80
2024/03/08 11:36:37;;;;;;;4.53;2.80;;;6.80;99.90;;;;;;5090290;28;20495;-81
2024/03/08 11:39:14;;;;;;;7.97;3.73;;;7.00;99.90;;;;;;5087668;28;20473;-82
2024/03/08 11:41:49;;;;;;;6.60;2.90;;;7.10;99.90;;;;;;5083797;28;20489;-80
2024/03/08 11:44:17;;;;;;;3.33;2.50;;;7.20;99.90;;;;;;5084930;28;20448;-80
2024/03/08 11:46:47;;;;;;;6.90;3.63;;;8.50;99.90;;;;;;5079844;28;20457;-81
2024/03/08 11:49:18;;;;;;;4.50;3.03;;;8.80;99.90;;;;;;5078250;28;20528;-80
2024/03/08 11:51:48;;;;;;;7.67;2.80;;;7.30;99.90;;;;;;5076935;28;20448;-80
2024/03/08 11:54:34;;;;;;;3.87;2.47;;;7.40;99.90;;;;;;5066809;28;20426;-82
2024/03/08 11:57:05;;;;;;;4.73;3.33;;;7.40;99.90;;;;;;5064606;28;20449;-81
2024/03/08 11:59:39;;;;;;;7.57;3.20;;;7.40;99.90;;;;;;5081553;28;20512;-83
2024/03/08 12:02:42;;;;;;;7.03;3.90;;;7.40;99.90;;;;;;5081909;28;20472;-82
2024/03/08 12:05:16;;;;;;;8.20;4.10;;;7.50;99.90;;;;;;5071589;28;20450;-80
2024/03/08 12:07:46;;;;;;;4.57;2.90;;;7.60;99.90;;;;;;5059997;28;20477;-80
2024/03/08 12:10:19;;;;;;;6.07;3.70;;;7.40;99.90;;;;;;5059997;28;20464;-80
2024/03/08 12:12:49;;;;;;;5.30;2.40;;;7.20;99.90;;;;;;5057408;28;20454;-79
2024/03/08 12:15:17;;;;;;;9.30;4.37;;;6.70;99.90;;;;;;5058432;28;20528;-79
2024/03/08 12:17:47;;;;;;;3.33;2.33;;;6.90;99.90;;;;;;5056599;28;20561;-80
2024/03/08 12:20:23;;;;;;;4.90;2.40;;;7.40;99.90;;;;;;5056827;28;20456;-80
2024/03/08 12:22:53;;;;;;;8.37;4.07;;;6.60;99.90;;;;;;5056845;28;20455;-80
2024/03/08 12:25:31;;;;;;;4.23;1.80;;;6.80;99.90;;;;;;5060746;28;20536;-80
2024/03/08 12:28:10;;;;;;;6.07;2.60;;;6.60;99.90;;;;;;5044524;28;20477;-80
2024/03/08 12:30:52;;;;;;;5.50;2.90;;;6.30;99.90;;;;;;5055889;28;20488;-81
2024/03/08 12:33:21;;;;;;;9.27;4.27;;;6.90;99.90;;;;;;5056633;28;20466;-80
2024/03/08 12:35:57;;;;;;;3.33;2.80;;;7.10;99.90;;;;;;5056288;28;20526;-79
2024/03/08 12:38:31;;;;;;;4.90;3.00;;;7.00;99.90;;;;;;5054964;28;20477;-80
2024/03/08 12:41:00;;;;;;;9.27;3.80;;;6.80;99.90;;;;;;5038430;28;20503;-81
2024/03/08 12:43:30;;;;;;;2.80;2.27;;;6.80;99.90;;;;;;5056312;28;20454;-80
2024/03/08 12:45:58;;;;;;;6.57;4.03;;;6.70;99.90;;;;;;5056085;28;20484;-80
2024/03/08 12:48:26;;;;;;;4.53;2.53;;;6.70;99.90;;;;;;5038520;28;20911;-81
2024/03/08 12:50:55;;;;;;;13.60;5.73;;;7.00;99.90;;;;;;5056556;28;20458;-81
2024/03/08 12:53:25;;;;;;;8.33;2.30;;;6.70;99.90;;;;;;5056252;28;20473;-80
2024/03/08 12:55:55;;;;;;;3.07;2.17;;;7.80;99.90;;;;;;5056338;28;20537;-80
2024/03/08 12:58:23;;;;;;;6.80;3.30;;;6.60;99.90;;;;;;5055819;28;20896;-80
2024/03/08 13:00:51;;;;;;;7.07;3.03;;;6.60;99.90;;;;;;5055928;28;20477;-80
2024/03/08 13:03:20;;;;;;;4.87;2.20;;;5.60;99.90;;;;;;5055754;28;20556;-80
2024/03/08 13:05:49;;;;;;;9.13;3.53;;;6.60;99.90;;;;;;5055804;28;20450;-80